createdAt,value
2019-01-09T00:04:03.285Z,100189.86
2019-01-09T00:06:31.609Z,100183.24
2019-01-09T00:08:59.956Z,100185.83
2019-01-09T00:11:28.204Z,100194.25
2019-01-09T00:13:56.505Z,100193.28
2019-01-09T00:16:24.755Z,100189.16
2019-01-09T00:18:53.011Z,100187.79
2019-01-09T00:21:21.269Z,100196.16
2019-01-09T00:23:49.524Z,100199.81
2019-01-09T00:26:17.797Z,100205.48
2019-01-09T00:28:46.034Z,100202.90
2019-01-09T00:31:14.330Z,100205.53
2019-01-09T00:33:43.597Z,100213.19
2019-01-09T00:36:11.930Z,100207.94
2019-01-09T00:38:40.674Z,100225.25
2019-01-09T00:41:10.150Z,100228.02
2019-01-09T00:43:38.811Z,100230.72
2019-01-09T00:46:07.065Z,100236.42
2019-01-09T00:48:35.329Z,100246.80
2019-01-09T00:51:03.590Z,100246.80
2019-01-09T00:53:31.839Z,100252.80
2019-01-09T00:56:00.126Z,100268.61
2019-01-09T00:58:47.721Z,100255.84
2019-01-09T01:01:15.970Z,100255.84
2019-01-09T01:04:05.190Z,100261.48
2019-01-09T01:07:12.185Z,100271.11
2019-01-09T01:09:54.814Z,100285.17
2019-01-09T01:13:01.803Z,100271.59
2019-01-09T01:16:03.432Z,100285.75
2019-01-09T01:19:10.450Z,100297.86
2019-01-09T01:22:12.090Z,100301.33
2019-01-09T01:25:14.210Z,100308.80
2019-01-09T01:28:15.903Z,100317.55
2019-01-09T01:31:22.872Z,100314.97
2019-01-09T01:34:31.260Z,100329.22
2019-01-09T01:37:33.401Z,100321.59
2019-01-09T01:40:40.380Z,100351.16
2019-01-09T01:43:48.683Z,100349.63
2019-01-09T01:46:50.874Z,100360.67
2019-01-09T01:49:57.837Z,100355.75
2019-01-09T01:53:06.132Z,100364.53
2019-01-09T01:56:08.059Z,100370.84
2019-01-09T01:59:10.155Z,100378.52
2019-01-09T02:02:18.991Z,100394.43
2019-01-09T02:05:21.049Z,100388.46
2019-01-09T02:08:22.599Z,100400.84
2019-01-09T02:11:24.085Z,100402.20
2019-01-09T02:14:25.778Z,100404.75
2019-01-09T02:17:28.129Z,100407.77
2019-01-09T02:20:29.742Z,100413.63
2019-01-09T02:23:36.672Z,100406.81
2019-01-09T02:26:44.966Z,100416.20
2019-01-09T02:29:46.882Z,100411.16
2019-01-09T02:32:34.511Z,100415.84
2019-01-09T02:35:02.774Z,100421.66
2019-01-09T02:37:31.023Z,100431.46
2019-01-09T02:39:59.295Z,100435.84
2019-01-09T02:42:27.553Z,100435.48
2019-01-09T02:44:55.833Z,100437.98
2019-01-09T02:47:24.072Z,100438.91
2019-01-09T02:49:52.320Z,100438.02
2019-01-09T02:52:20.563Z,100432.42
2019-01-09T02:54:48.803Z,100434.59
2019-01-09T02:57:17.049Z,100435.84
2019-01-09T02:59:45.317Z,100437.03
2019-01-09T03:02:13.562Z,100444.17
2019-01-09T03:04:41.799Z,100438.13
2019-01-09T03:07:10.067Z,100441.88
2019-01-09T03:09:38.303Z,100438.45
2019-01-09T03:12:06.575Z,100442.14
2019-01-09T03:14:34.828Z,100448.07
2019-01-09T03:17:03.077Z,100457.14
2019-01-09T03:19:31.346Z,100466.33
2019-01-09T03:21:59.600Z,100471.23
2019-01-09T03:24:27.840Z,100469.64
2019-01-09T03:26:56.108Z,100465.05
2019-01-09T03:29:24.348Z,100475.23
2019-01-09T03:31:52.639Z,100470.69
2019-01-09T03:34:20.877Z,100470.62
2019-01-09T03:36:49.194Z,100467.23
2019-01-09T03:39:17.463Z,100466.51
2019-01-09T03:41:45.721Z,100466.81
2019-01-09T03:44:13.994Z,100471.88
2019-01-09T03:46:42.265Z,100467.56
2019-01-09T03:49:10.542Z,100471.40
2019-01-09T03:51:38.793Z,100483.31
2019-01-09T03:54:07.060Z,100480.89
2019-01-09T03:56:35.413Z,100482.22
2019-01-09T03:59:03.691Z,100476.63
2019-01-09T04:01:31.940Z,100489.30
2019-01-09T04:04:00.221Z,100492.70
2019-01-09T04:06:28.466Z,100492.70
2019-01-09T04:08:56.747Z,100508.50
2019-01-09T04:11:25.007Z,100496.70
2019-01-09T04:13:53.290Z,100493.66
2019-01-09T04:16:21.553Z,100505.80
2019-01-09T04:18:49.862Z,100504.54
2019-01-09T04:21:18.122Z,100511.18
2019-01-09T04:23:46.416Z,100512.66
2019-01-09T04:26:14.692Z,100519.11
2019-01-09T04:28:42.982Z,100503.95
2019-01-09T04:31:11.233Z,100517.63
2019-01-09T04:33:39.515Z,100520.98
2019-01-09T04:36:07.808Z,100518.98
2019-01-09T04:38:36.120Z,100516.94
2019-01-09T04:41:04.343Z,100520.02
2019-01-09T04:43:32.667Z,100516.97
2019-01-09T04:46:00.962Z,100518.95
2019-01-09T04:48:29.235Z,100517.09
2019-01-09T04:50:57.500Z,100521.43
2019-01-09T04:53:25.769Z,100520.86
2019-01-09T04:55:54.136Z,100524.25
2019-01-09T04:58:22.399Z,100528.53
2019-01-09T05:00:50.673Z,100534.84
2019-01-09T05:03:18.925Z,100536.00
2019-01-09T05:05:47.189Z,100526.77
2019-01-09T05:08:15.466Z,100521.08
2019-01-09T05:10:44.175Z,100537.70
2019-01-09T05:13:12.439Z,100543.67
2019-01-09T05:15:40.718Z,100533.70
2019-01-09T05:18:08.996Z,100536.20
2019-01-09T05:20:37.266Z,100547.34
2019-01-09T05:23:05.531Z,100547.72
2019-01-09T05:25:33.804Z,100542.52
2019-01-09T05:28:02.085Z,100545.37
2019-01-09T05:30:30.338Z,100546.25
2019-01-09T05:32:58.623Z,100549.27
2019-01-09T05:35:26.847Z,100550.13
2019-01-09T05:37:55.135Z,100554.30
2019-01-09T05:40:23.402Z,100552.56
2019-01-09T05:43:33.107Z,100554.63
2019-01-09T05:46:01.393Z,100556.22
2019-01-09T05:48:29.708Z,100573.41
2019-01-09T05:51:17.373Z,100577.13
2019-01-09T05:53:45.706Z,100602.09
2019-01-09T05:56:14.018Z,100585.67
2019-01-09T06:01:31.771Z,100600.47
2019-01-09T06:04:00.101Z,100600.70
2019-01-09T06:06:28.404Z,100602.06
2019-01-09T06:08:56.776Z,100599.98
2019-01-09T06:11:25.009Z,100605.66
2019-01-09T06:16:53.552Z,100618.05
2019-01-09T06:19:21.801Z,100611.56
2019-01-09T06:21:50.189Z,100624.91
2019-01-09T06:24:18.525Z,100623.05
2019-01-09T06:27:24.488Z,100622.16
2019-01-09T06:33:06.747Z,100637.67
2019-01-09T06:35:35.138Z,100633.84
2019-01-09T06:38:03.370Z,100632.25
2019-01-09T06:40:31.676Z,100639.48
2019-01-09T06:42:59.936Z,100634.73
2019-01-09T06:45:28.270Z,100647.54
2019-01-09T06:47:56.604Z,100647.54
2019-01-09T06:50:24.907Z,100655.75
2019-01-09T06:52:53.193Z,100642.69
2019-01-09T06:58:24.589Z,100661.61
2019-01-09T07:00:52.890Z,100670.23
2019-01-09T07:03:21.200Z,100671.05
2019-01-09T07:05:49.538Z,100669.86
2019-01-09T07:08:17.826Z,100691.33
2019-01-09T07:10:46.123Z,100702.95
2019-01-09T07:13:33.543Z,100706.77
2019-01-09T07:16:01.856Z,100712.36
2019-01-09T07:18:30.172Z,100715.23
2019-01-09T07:20:58.506Z,100712.33
2019-01-09T07:23:26.893Z,100715.81
2019-01-09T07:25:55.167Z,100716.67
2019-01-09T07:31:26.588Z,100716.93
2019-01-09T07:33:54.882Z,100721.53
2019-01-09T07:36:23.128Z,100732.59
2019-01-09T07:39:10.867Z,100731.23
2019-01-09T07:41:39.112Z,100730.70
2019-01-09T07:46:56.344Z,100739.59
2019-01-09T07:49:25.393Z,100743.02
2019-01-09T07:51:53.731Z,100748.09
2019-01-09T07:54:41.362Z,100754.10
2019-01-09T07:57:29.129Z,100754.01
2019-01-09T07:59:57.471Z,100755.68
2019-01-09T08:02:25.802Z,100763.77
2019-01-09T08:04:54.054Z,100763.77
2019-01-09T08:07:22.318Z,100762.95
2019-01-09T08:10:04.782Z,100777.23
2019-01-09T08:13:06.997Z,100780.48
2019-01-09T08:18:22.716Z,100802.59
2019-01-09T08:23:51.997Z,100803.08
2019-01-09T08:26:20.271Z,100814.34
2019-01-09T08:28:48.588Z,100815.20
2019-01-09T08:34:06.163Z,100821.88
2019-01-09T08:36:34.451Z,100817.64
2019-01-09T08:39:02.810Z,100816.84
2019-01-09T08:44:15.080Z,100831.89
2019-01-09T08:46:56.930Z,100839.60
2019-01-09T08:49:25.346Z,100855.41
2019-01-09T08:51:53.757Z,100857.73
2019-01-09T08:57:12.256Z,100868.03
2019-01-09T09:02:24.466Z,100859.19
2019-01-09T09:04:52.754Z,100860.83
2019-01-09T09:10:13.698Z,100874.23
2019-01-09T09:16:00.025Z,100875.04
2019-01-09T09:18:28.330Z,100884.43
2019-01-09T09:20:56.589Z,100894.13
2019-01-09T09:23:24.859Z,100890.34
2019-01-09T09:29:03.258Z,100898.82
2019-01-09T09:31:51.764Z,100899.23
2019-01-09T09:37:19.704Z,100904.75
2019-01-09T09:47:15.448Z,100913.50
2019-01-09T09:49:43.714Z,100916.10
2019-01-09T09:52:12.054Z,100926.23
2019-01-09T09:54:40.309Z,100935.55
2019-01-09T10:03:22.029Z,100942.59
2019-01-09T10:05:50.297Z,100943.14
2019-01-09T10:08:18.555Z,100939.58
2019-01-09T10:10:46.880Z,100944.32
2019-01-09T10:13:15.135Z,100942.28
2019-01-09T10:15:43.444Z,100951.70
2019-01-09T10:21:51.554Z,100956.07
2019-01-09T10:24:39.193Z,100966.18
2019-01-09T10:30:02.013Z,100958.81
2019-01-09T10:35:31.847Z,100952.24
2019-01-09T10:38:00.119Z,100966.30
2019-01-09T10:40:35.995Z,100958.10
2019-01-09T10:42:58.377Z,100966.65
2019-01-09T10:45:26.645Z,100965.61
2019-01-09T10:54:06.428Z,100974.19
2019-01-09T10:56:34.765Z,100967.53
2019-01-09T10:59:03.020Z,100966.19
2019-01-09T11:01:31.291Z,100970.86
2019-01-09T11:07:02.633Z,100970.06
2019-01-09T11:09:30.895Z,100976.93
2019-01-09T11:18:08.583Z,100986.21
2019-01-09T11:20:36.889Z,100994.64
2019-01-09T11:23:25.584Z,100994.71
2019-01-09T11:25:53.948Z,100994.27
2019-01-09T11:28:22.216Z,100998.55
2019-01-09T11:33:37.900Z,101003.78
2019-01-09T11:36:26.948Z,101002.20
2019-01-09T11:38:55.975Z,101006.34
2019-01-09T11:44:29.759Z,101008.73
2019-01-09T11:46:58.025Z,101008.73
2019-01-09T11:52:34.405Z,101021.95
2019-01-09T11:58:08.607Z,101028.98
2019-01-09T12:00:36.876Z,101028.69
2019-01-09T12:03:05.257Z,101034.36
2019-01-09T12:08:36.642Z,101037.42
2019-01-09T12:11:05.177Z,101040.95
2019-01-09T12:13:33.492Z,101041.45
2019-01-09T12:24:45.069Z,101043.70
2019-01-09T12:27:13.328Z,101052.46
2019-01-09T12:29:41.611Z,101048.70
2019-01-09T12:39:00.450Z,101062.59
2019-01-09T12:41:28.714Z,101073.52
2019-01-09T12:43:57.027Z,101068.09
2019-01-09T12:46:25.297Z,101073.58
2019-01-09T12:51:58.957Z,101067.94
2019-01-09T12:54:27.208Z,101087.70
2019-01-09T13:03:31.498Z,101082.40
2019-01-09T13:05:59.764Z,101083.14
2019-01-09T13:08:28.032Z,101098.97
2019-01-09T13:10:56.289Z,101092.86
2019-01-09T13:19:37.434Z,101108.55
2019-01-09T13:22:05.710Z,101109.36
2019-01-09T13:24:33.967Z,101122.66
2019-01-09T13:30:50.711Z,101140.67
2019-01-09T13:36:51.668Z,101139.30
2019-01-09T13:39:19.936Z,101155.69
2019-01-09T13:41:48.230Z,101156.05
2019-01-09T13:47:14.239Z,101159.83
2019-01-09T13:53:21.446Z,101168.63
2019-01-09T13:56:23.388Z,101160.36
2019-01-09T13:59:30.763Z,101176.72
2019-01-09T14:01:59.023Z,101180.53
2019-01-09T14:04:42.622Z,101166.31
2019-01-09T14:07:10.882Z,101177.81
2019-01-09T14:12:46.622Z,101190.36
2019-01-09T14:18:41.264Z,101210.16
2019-01-09T14:24:17.007Z,101205.47
2019-01-09T14:27:27.125Z,101214.94
2019-01-09T14:30:31.296Z,101222.28
2019-01-09T14:35:44.763Z,101230.96
2019-01-09T14:38:13.031Z,101234.08
2019-01-09T14:44:05.859Z,101240.98
2019-01-09T14:46:34.179Z,101259.07
2019-01-09T14:52:47.326Z,101250.48
2019-01-09T14:58:23.078Z,101253.47
2019-01-09T15:00:51.336Z,101256.42
2019-01-09T15:03:20.378Z,101262.80
2019-01-09T15:05:48.686Z,101257.71
2019-01-09T15:08:16.904Z,101259.88
2019-01-09T15:10:45.165Z,101260.67
2019-01-09T15:13:13.410Z,101265.47
2019-01-09T15:15:41.680Z,101269.27
2019-01-09T15:20:58.051Z,101280.84
2019-01-09T15:26:35.042Z,101278.25
2019-01-09T15:29:03.305Z,101282.95
2019-01-09T15:31:31.550Z,101284.73
2019-01-09T15:33:59.798Z,101289.84
2019-01-09T15:36:28.054Z,101288.50
2019-01-09T15:38:56.297Z,101288.53
2019-01-09T15:41:24.560Z,101291.91
2019-01-09T15:43:52.807Z,101292.70
2019-01-09T15:46:21.089Z,101299.66
2019-01-09T15:48:49.326Z,101305.26
2019-01-09T15:51:17.577Z,101300.09
2019-01-09T15:53:45.956Z,101309.55
2019-01-09T15:59:20.624Z,101310.86
2019-01-09T16:01:49.681Z,101315.60
2019-01-09T16:13:26.104Z,101326.39
2019-01-09T16:18:55.654Z,101334.63
2019-01-09T16:24:37.251Z,101342.31
2019-01-09T16:27:05.538Z,101338.16
2019-01-09T16:32:56.251Z,101351.91
2019-01-09T16:35:41.031Z,101350.56
2019-01-09T16:38:09.305Z,101359.17
2019-01-09T16:40:37.629Z,101353.55
2019-01-09T16:49:40.547Z,101364.73
2019-01-09T16:52:08.811Z,101378.05
2019-01-09T16:54:37.080Z,101381.50
2019-01-09T17:02:55.882Z,101398.30
2019-01-09T17:05:24.161Z,101394.86
2019-01-09T17:10:31.891Z,101408.19
2019-01-09T17:12:53.370Z,101404.34
2019-01-09T17:15:21.643Z,101419.83
2019-01-09T17:17:49.907Z,101421.98
2019-01-09T17:20:58.418Z,101433.16
2019-01-09T17:23:26.687Z,101429.77
2019-01-09T17:25:55.173Z,101439.20
2019-01-09T17:28:23.514Z,101441.78
2019-01-09T17:30:51.824Z,101441.84
2019-01-09T17:33:20.142Z,101451.23
2019-01-09T17:35:48.400Z,101455.98
2019-01-09T17:38:16.670Z,101455.96
2019-01-09T17:40:45.055Z,101465.47
2019-01-09T17:43:13.651Z,101463.72
2019-01-09T17:45:41.993Z,101469.38
2019-01-09T17:48:10.247Z,101480.89
2019-01-09T17:50:40.245Z,101485.71
2019-01-09T17:53:08.509Z,101484.44
2019-01-09T17:55:36.791Z,101486.57
2019-01-09T17:58:05.141Z,101491.33
2019-01-09T18:08:58.898Z,101502.09
2019-01-09T18:11:47.344Z,101513.75
2019-01-09T18:17:18.927Z,101508.16
2019-01-09T18:19:47.479Z,101522.81
2019-01-09T18:24:54.678Z,101525.02
2019-01-09T18:27:23.120Z,101523.23
2019-01-09T18:29:51.414Z,101530.16
2019-01-09T18:33:00.371Z,101532.34
2019-01-09T18:39:24.184Z,101534.05
2019-01-09T18:42:33.597Z,101542.23
2019-01-09T18:45:35.927Z,101549.52
2019-01-09T18:48:42.945Z,101555.56
2019-01-09T18:54:30.752Z,101556.88
2019-01-09T18:56:59.673Z,101561.61
2019-01-09T18:59:28.755Z,101565.49
2019-01-09T19:04:45.776Z,101579.24
2019-01-09T19:07:14.050Z,101584.41
2019-01-09T19:12:50.628Z,101596.04
2019-01-09T19:21:27.304Z,101600.34
2019-01-09T19:23:57.433Z,101600.81
2019-01-09T19:26:25.598Z,101601.27
2019-01-09T19:28:53.844Z,101610.28
2019-01-09T19:31:41.455Z,101608.12
2019-01-09T19:34:09.944Z,101611.58
2019-01-09T19:40:24.316Z,101629.64
2019-01-09T19:42:52.577Z,101629.66
2019-01-09T19:45:20.871Z,101639.53
2019-01-09T19:47:49.129Z,101644.70
2019-01-09T19:53:14.002Z,101649.86
2019-01-09T19:58:47.177Z,101661.94
2019-01-09T20:04:41.775Z,101672.69
2019-01-09T20:07:10.026Z,101679.14
2019-01-09T20:09:57.718Z,101678.71
2019-01-09T20:12:26.001Z,101686.02
2019-01-09T20:15:34.386Z,101688.17
2019-01-09T20:18:02.707Z,101683.89
2019-01-09T20:20:31.017Z,101683.88
2019-01-09T20:31:23.877Z,101687.37
2019-01-09T20:33:52.203Z,101677.92
2019-01-09T20:36:39.932Z,101681.36
2019-01-09T20:39:42.754Z,101687.80
2019-01-09T20:42:23.948Z,101694.67
2019-01-09T20:45:12.791Z,101693.82
2019-01-09T20:47:43.627Z,101709.28
2019-01-09T20:50:52.033Z,101707.56
2019-01-09T20:53:20.399Z,101709.70
2019-01-09T20:55:48.766Z,101714.44
2019-01-09T21:01:44.736Z,101725.57
2019-01-09T21:04:32.535Z,101719.16
2019-01-09T21:07:00.903Z,101728.61
2019-01-09T21:09:29.207Z,101733.73
2019-01-09T21:12:30.983Z,101733.30
2019-01-09T21:14:59.267Z,101741.94
2019-01-09T21:17:27.538Z,101742.80
2019-01-09T21:19:55.763Z,101746.66
2019-01-09T21:22:24.003Z,101746.23
2019-01-09T21:24:52.274Z,101749.66
2019-01-09T21:27:20.541Z,101752.24
2019-01-09T21:29:48.800Z,101759.55
2019-01-09T21:32:17.078Z,101762.55
2019-01-09T21:34:45.337Z,101768.14
2019-01-09T21:37:13.626Z,101761.70
2019-01-09T21:39:41.894Z,101771.14
2019-01-09T21:42:10.165Z,101775.44
2019-01-09T21:44:38.420Z,101780.59
2019-01-09T21:47:06.686Z,101776.30
2019-01-09T21:49:34.944Z,101787.48
2019-01-09T21:52:03.200Z,101784.47
2019-01-09T21:54:31.540Z,101786.19
2019-01-09T21:56:59.820Z,101796.05
2019-01-09T21:59:28.074Z,101796.92
2019-01-09T22:01:56.329Z,101803.36
2019-01-09T22:04:24.591Z,101811.11
2019-01-09T22:06:52.846Z,101799.52
2019-01-09T22:09:21.113Z,101806.82
2019-01-09T22:11:49.390Z,101813.69
2019-01-09T22:14:17.658Z,101817.55
2019-01-09T22:16:45.931Z,101812.83
2019-01-09T22:19:14.208Z,101819.70
2019-01-09T22:21:42.494Z,101819.25
2019-01-09T22:24:10.755Z,101825.27
2019-01-09T22:26:39.039Z,101828.70
2019-01-09T22:29:07.304Z,101817.98
2019-01-09T22:31:35.596Z,101814.12
2019-01-09T22:34:03.831Z,101826.11
2019-01-09T22:36:32.109Z,101828.71
2019-01-09T22:39:00.375Z,101826.14
2019-01-09T22:41:28.652Z,101826.99
2019-01-09T22:43:56.914Z,101828.70
2019-01-09T22:46:25.195Z,101834.70
2019-01-09T22:48:53.475Z,101834.73
2019-01-09T22:51:21.747Z,101833.41
2019-01-09T22:53:50.017Z,101835.99
2019-01-09T22:56:18.295Z,101840.30
2019-01-09T22:58:46.582Z,101836.01
2019-01-09T23:01:48.756Z,101835.15
2019-01-09T23:04:17.056Z,101833.00
2019-01-09T23:06:45.319Z,101827.84
2019-01-09T23:09:13.567Z,101829.98
2019-01-09T23:11:41.853Z,101833.84
2019-01-09T23:14:10.207Z,101834.70
2019-01-09T23:16:38.488Z,101832.11
2019-01-09T23:19:06.799Z,101833.81
2019-01-09T23:21:35.741Z,101826.11
2019-01-09T23:24:04.156Z,101824.38
2019-01-09T23:26:32.414Z,101825.27
2019-01-09T23:29:00.689Z,101830.41
2019-01-09T23:31:28.960Z,101829.11
2019-01-09T23:33:57.256Z,101824.80
2019-01-09T23:36:27.421Z,101834.27
2019-01-09T23:38:55.580Z,101836.40
2019-01-09T23:41:23.951Z,101838.12
2019-01-09T23:43:52.208Z,101836.84
2019-01-09T23:46:20.480Z,101835.97
2019-01-09T23:48:48.744Z,101835.98
2019-01-09T23:51:36.397Z,101838.13
2019-01-09T23:54:39.715Z,101845.86
2019-01-09T23:57:08.005Z,101843.28
2019-01-09T23:59:36.267Z,101842.84
